Nearby METAR Reports


Data Updates Approximately Every Four Hours

METAR is the international standard code format for hourly surface weather observations which is analogous to the SA coding currently used in the US. The acronym roughly translates from French as Aviation Routine Weather Report. SPECI is merely the code name given to METAR formatted products which are issued on a special non-routine basis as dictated by changing meteorological conditions. The SPECI acronym roughly translates as Aviation Selected Special Weather Report.

KSLH - Cheboygan, Michigan, USA
Distance from station: W 9mi, 14km
Updated: 02/23/2019 5:35pm
Overcast
Overcast
 Wind from E
Wind: E 12 mph , 19 km/h, Gust: 17 mph , 28 km/h
Temperature: 32°F , 0°C
Wind Chill: 23°F , -5°C
Dew Point: 27°F , -3°C
Humidity: 80%
Barometer: 29.96 inHg , 1014.6 hPa
Clouds: Overcast
Visibility: 10 miles , 16 km
Cloud details: Partly cloudy 2200 ft
Partly cloudy 3700 ft
Overcast 11000 ft
2019/02/23 22:35 KSLH 232235Z AUTO 08010G15KT 10SM SCT022 SCT037 OVC110 00/M03 A2996 RMK AO2 T10031027
KMCD - Mackinac Island, Michigan, USA
Distance from station: NW 19mi, 31km
Updated: 02/23/2019 5:36pm
Light snow, Overcast
Light snow, Overcast
 Wind from E
Wind: E 18 mph , 30 km/h, Gust: 29 mph , 46 km/h
Temperature: 30°F , -1°C
Wind Chill: 18°F , -8°C
Dew Point: 28°F , -2°C
Humidity: 93%
Barometer: 29.96 inHg , 1014.6 hPa
Summary: Light Snow
Clouds: Overcast
Visibility: 2 miles , 3 km
Cloud details: Overcast 1000 ft
2019/02/23 22:36 KMCD 232236Z AUTO 09016G25KT 2SM -SN OVC010 M01/M02 A2996 RMK AO2 T10071019
 
KPLN - Pellston, Michigan, USA
Distance from station: WSW 24mi, 38km
Updated: 02/23/2019 4:54pm
Light snow, Overcast
Light snow, Overcast
 Wind from E
Wind: E 13 mph , 20 km/h
Temperature: 34°F , 1°C
Wind Chill: 25°F , -4°C
Dew Point: 25°F , -4°C
Humidity: 70%
Barometer: 29.97 inHg , 1014.9 hPa
Summary: Light Snow
Clouds: Overcast
Visibility: 4 miles , 6 km
Cloud details: Mostly cloudy 3200 ft
Overcast 4500 ft
2019/02/23 21:54 KPLN 232154Z AUTO 08011KT 4SM -SN BKN032 OVC045 01/M04 A2997 RMK AO2 SNB49 PRESFR SLP159 P0000 T00111044
KPZQ - Rogers City, Michigan, USA
Distance from station: SE 31mi, 50km
Updated: 02/23/2019 5:35pm
Overcast
Overcast
 Wind from ESE
Wind: ESE 13 mph , 20 km/h
Temperature: 32°F , 0°C
Wind Chill: 22°F , -6°C
Dew Point: 27°F , -3°C
Humidity: 80%
Barometer: 30.02 inHg , 1016.6 hPa
Clouds: Overcast
Visibility: 10 miles , 16 km
Cloud details: Overcast 1300 ft
2019/02/23 22:35 KPZQ 232235Z AUTO 12011KT 10SM OVC013 00/M03 A3002 RMK AO2 T10041027
 
KMGN - Harbor Springs, Michigan, USA
Distance from station: WSW 32mi, 52km
Updated: 02/23/2019 5:36pm
Overcast
Overcast
 Wind from E
Wind: E 17 mph , 28 km/h, Gust: 25 mph , 41 km/h
Temperature: 34°F , 1°C
Wind Chill: 23°F , -5°C
Dew Point: 23°F , -5°C
Humidity: 65%
Barometer: 29.92 inHg , 1013.2 hPa
Clouds: Overcast
Visibility: 10 miles , 16 km
Cloud details: Mostly cloudy 5500 ft
Overcast 8000 ft
2019/02/23 22:36 KMGN 232236Z AUTO 09015G22KT 10SM BKN055 OVC080 01/M05 A2992 RMK AO2 T00101050
KDRM - Drummond Is, Michigan, USA
Distance from station: NE 36mi, 59km
Updated: 02/23/2019 5:36pm
Overcast
Overcast
 Wind from E
Wind: E 8 mph , 13 km/h, Gust: 17 mph , 28 km/h
Temperature: 30°F , -1°C
Wind Chill: 22°F , -6°C
Dew Point: 23°F , -5°C
Humidity: 75%
Barometer: 30.03 inHg , 1016.9 hPa
Clouds: Overcast
Visibility: 10 miles , 16 km
Cloud details: Partly cloudy 4100 ft
Mostly cloudy 5000 ft
Overcast 7000 ft
2019/02/23 22:36 KDRM 232236Z AUTO 10007G15KT 060V130 10SM SCT041 BKN050 OVC070 M01/M05 A3003 RMK AO2 T10121046
 
KCIU - Chippewa Intl, Michigan, USA
Distance from station: N 41mi, 66km
Updated: 02/23/2019 5:34pm
Light snow, Mist, Overcast
Light snow, Mist, Overcast
 Wind from SE
Wind: SE 18 mph , 30 km/h
Temperature: 28°F , -2°C
Wind Chill: 15°F , -9°C
Dew Point: 27°F , -3°C
Humidity: 93%
Barometer: 30.00 inHg , 1015.9 hPa
Summary: Light snow, Mist
Clouds: Overcast
Visibility: 3 miles , 5 km
Cloud details: Few Clouds 1000 ft
Overcast 2200 ft
2019/02/23 22:34 KCIU 232234Z AUTO 13016KT 3SM -SN BR FEW010 OVC022 M02/M03 A3000 RMK AO2 P0000 FZRANO
KGLR - Gaylord, Michigan, USA
Distance from station: SSW 48mi, 77km
Updated: 02/23/2019 4:53pm
Overcast
Overcast
 Wind from ESE
Wind: ESE 12 mph , 19 km/h, Gust: 24 mph , 39 km/h
Temperature: 30°F , -1°C
Wind Chill: 20°F , -7°C
Dew Point: 23°F , -5°C
Humidity: 75%
Barometer: 29.89 inHg , 1012.2 hPa
Clouds: Overcast
Visibility: 10 miles , 16 km
Cloud details: Overcast 7000 ft
2019/02/23 21:53 KGLR 232153Z AUTO 11010G21KT 10SM OVC070 M01/M05 A2989 RMK AO2 PK WND 12026/2139 SLP141 T10061050
 
KCVX - Charlevoix, Michigan, USA
Distance from station: WSW 52mi, 83km
Updated: 02/23/2019 5:36pm
Overcast
Overcast
 Wind from E
Wind: E 16 mph , 26 km/h, Gust: 23 mph , 37 km/h
Temperature: 36°F , 2°C
Wind Chill: 26°F , -3°C
Dew Point: 25°F , -4°C
Humidity: 65%
Barometer: 29.91 inHg , 1012.9 hPa
Clouds: Overcast
Visibility: 10 miles , 16 km
Cloud details: Mostly cloudy 7000 ft
Overcast 8500 ft
2019/02/23 22:36 KCVX 232236Z AUTO 09014G20KT 10SM BKN070 OVC085 02/M04 A2991 RMK AO2 T00151039
KANJ - Sault Ste Marie, Michigan, USA
Distance from station: N 56mi, 89km
Updated: 02/23/2019 5:46pm
Snow, Freezing, Fog, Overcast
Snow, Freezing, Fog, Overcast
 Wind from ESE
Wind: ESE 7 mph , 11 km/h, Gust: 18 mph , 30 km/h
Temperature: 30°F , -1°C
Wind Chill: 23°F , -5°C
Dew Point: 27°F , -3°C
Humidity: 86%
Barometer: 29.99 inHg , 1015.6 hPa
Summary: Snow, Freezing, Fog
Clouds: Overcast
Visibility: 1/2 mile , 0.8 km
Cloud details: Few Clouds 500 ft
Overcast 1500 ft
2019/02/23 22:46 KANJ 232246Z AUTO 11006G16KT 1/2SM SN FZFG FEW005 OVC015 M01/M03 A2999 RMK AO2 SNB08 P0002 T10111028
 
KAPN - Alpena, Michigan, USA
Distance from station: SE 56mi, 89km
Updated: 02/23/2019 5:36pm
Overcast
Overcast
 Wind from E
Wind: E 10 mph , 17 km/h
Temperature: 30°F , -1°C
Wind Chill: 21°F , -6°C
Dew Point: 27°F , -3°C
Humidity: 86%
Barometer: 29.99 inHg , 1015.6 hPa
Clouds: Overcast
Visibility: 10 miles , 16 km
Cloud details: Mostly cloudy 1100 ft
Overcast 8500 ft
2019/02/23 22:36 KAPN 232236Z AUTO 10009KT 10SM BKN011 OVC085 M01/M03 A2999 RMK AO2 T10061033
CYAM - Sault Ste Marie, Ontario, Canada
Distance from station: N 56mi, 90km
Updated: 02/23/2019 5:13pm
Light snow, Showers, Low drifting, Snow, Overcast
Light snow, Showers, Low drifting, Snow, Overcast
 Wind from E
Wind: E 12 mph , 19 km/h, Gust: 18 mph , 30 km/h
Temperature: 30°F , -1°C
Wind Chill: 20°F , -7°C
Dew Point: 25°F , -4°C
Humidity: 80%
Barometer: 30.00 inHg , 1015.9 hPa
Summary: Light snow, Showers, Low drifting, Snow
Clouds: Overcast
Visibility: 1 1/4 miles , 2 km
Cloud details: Few Clouds 900 ft
Overcast 1200 ft
2019/02/23 22:13 CYAM 232213Z 09010G16KT 1 1/4SM -SHSN DRSN FEW009 VV012 M01/M04 A3000 RMK CF1SN8 CF TR VIS VRB 3/4 - 1 3/4 CVCTV CLD EMBD SLP173
 
KSJX - Beaver Island, Michigan, USA
Distance from station: W 60mi, 96km
Updated: 02/23/2019 5:36pm
Overcast
Overcast
 Wind from E
Wind: E 14 mph , 22 km/h, Gust: 22 mph , 35 km/h
Temperature: 32°F , 0°C
Wind Chill: 22°F , -6°C
Dew Point: 27°F , -3°C
Humidity: 80%
Barometer: 29.90 inHg , 1012.5 hPa
Clouds: Overcast
Visibility: 10 miles , 16 km
Cloud details: Mostly cloudy 6500 ft
Overcast 7500 ft
2019/02/23 22:36 KSJX 232236Z AUTO 08012G19KT 10SM BKN065 OVC075 00/M03 A2990 RMK AO2 T00001028
KACB - Bellaire, Michigan, USA
Distance from station: SW 63mi, 102km
Updated: 02/23/2019 5:35pm
Overcast
Overcast
 Wind from E
Wind: E 5 mph , 7 km/h
Temperature: 36°F , 2°C
Wind Chill: 32°F , 0°C
Dew Point: 27°F , -3°C
Humidity: 70%
Barometer: 29.89 inHg , 1012.2 hPa
Clouds: Overcast
Visibility: 10 miles , 16 km
Cloud details: Partly cloudy 3600 ft
Mostly cloudy 4300 ft
Overcast 4800 ft
2019/02/23 22:35 KACB 232235Z AUTO 08004KT 10SM UP SCT036 BKN043 OVC048 02/M03 A2989 RMK AO2 T00201034
 
CWNL - Great Duck Island, Ontario, Canada
Distance from station: E 66mi, 106km
Updated: 02/23/2019 5:00pm

 Wind from ESE
Wind: ESE 10 mph , 17 km/h, Gust: 18 mph , 30 km/h
Temperature: 32°F , 0°C
Wind Chill: 24°F , -4°C
Dew Point: 25°F , -4°C
Humidity: 75%
2019/02/23 22:00 CWNL 232200Z AUTO 11009G16KT M00/M04 RMK AO1 PK WND 09019/2117 SLP177 T10031041 56048
KERY - Newberry, Michigan, USA
Distance from station: NW 69mi, 112km
Updated: 02/23/2019 5:36pm
Overcast
Overcast
 
Temperature: 30°F , -1°C
Dew Point: 28°F , -2°C
Humidity: 93%
Barometer: 29.92 inHg , 1013.2 hPa
Clouds: Overcast
Visibility: 10 miles , 16 km
Cloud details: Partly cloudy 1300 ft
Mostly cloudy 3100 ft
Overcast 5000 ft
2019/02/23 22:36 KERY 232236Z AUTO 10SM SCT013 BKN031 OVC050 M01/M02 A2992 RMK AO2 T10101021
 
KGOV - Grayling Af, Michigan, USA
Distance from station: SSW 70mi, 113km
Updated: 02/23/2019 2:58pm
NOT Current
Few Clouds
Few Clouds
 Wind from E
Wind: E 13 mph , 20 km/h
Temperature: 34°F , 1°C
Wind Chill: 25°F , -4°C
Dew Point: 25°F , -4°C
Humidity: 70%
Barometer: 29.97 inHg , 1014.9 hPa
Clouds: Few Clouds
Visibility: 10 miles , 16 km
Cloud details: Few Clouds 24000 ft
2019/02/23 19:58 KGOV 231958Z AUTO 09011KT 10SM FEW240 01/M04 A2997 RMK AO2 PRESFR SLPNO T00061045 $